createdAt,value
2023-03-27T00:01:01.233Z,76015.50
2023-03-27T00:03:29.177Z,76033.72
2023-03-27T00:06:04.301Z,76039.81
2023-03-27T00:08:31.608Z,76037.78
2023-03-27T00:10:58.467Z,76037.78
2023-03-27T00:13:25.065Z,76056.00
2023-03-27T00:15:53.867Z,76060.03
2023-03-27T00:18:20.459Z,76068.16
2023-03-27T00:20:47.215Z,76072.19
2023-03-27T00:23:13.949Z,76078.25
2023-03-27T00:25:40.809Z,76080.28
2023-03-27T00:28:08.414Z,76088.38
2023-03-27T00:30:35.384Z,76092.44
2023-03-27T00:33:03.038Z,76098.50
2023-03-27T00:35:29.939Z,76072.19
2023-03-27T00:37:57.201Z,76088.38
2023-03-27T00:40:23.676Z,76076.25
2023-03-27T00:42:51.893Z,76084.34
2023-03-27T00:45:23.473Z,76074.22
2023-03-27T00:48:00.662Z,76064.09
2023-03-27T00:50:34.586Z,76088.38
2023-03-27T00:53:06.397Z,76086.38
2023-03-27T00:55:37.086Z,76092.44
2023-03-27T00:58:08.328Z,76080.28
2023-03-27T01:00:34.962Z,76072.19
2023-03-27T01:03:05.399Z,76076.25
2023-03-27T01:05:32.194Z,76090.41
2023-03-27T01:08:00.933Z,76090.41
2023-03-27T01:10:48.351Z,76078.25
2023-03-27T01:13:34.700Z,76094.47
2023-03-27T01:16:07.202Z,76086.38
2023-03-27T01:18:39.727Z,76098.50
2023-03-27T01:21:15.153Z,76100.53
2023-03-27T01:24:00.728Z,76100.53
2023-03-27T01:26:46.700Z,76100.53
2023-03-27T01:29:51.059Z,76098.50
2023-03-27T01:32:51.294Z,76098.50
2023-03-27T01:35:23.927Z,76104.56
2023-03-27T01:38:06.525Z,76094.47
2023-03-27T01:40:47.240Z,76100.53
2023-03-27T01:43:28.530Z,76114.69
2023-03-27T01:46:00.348Z,76122.78
2023-03-27T01:48:44.874Z,76124.81
2023-03-27T01:51:19.172Z,76147.09
2023-03-27T01:54:21.706Z,76155.19
2023-03-27T01:56:55.790Z,76143.03
2023-03-27T01:59:27.102Z,76132.91
2023-03-27T02:01:59.206Z,76141.00
2023-03-27T02:04:30.723Z,76153.16
2023-03-27T02:07:00.653Z,76169.34
2023-03-27T02:09:34.269Z,76161.25
2023-03-27T02:12:23.465Z,76173.41
2023-03-27T02:14:55.230Z,76177.44
2023-03-27T02:17:26.109Z,76181.50
2023-03-27T02:19:56.138Z,76179.47
2023-03-27T02:22:37.236Z,76181.50
2023-03-27T02:25:21.339Z,76177.44
2023-03-27T02:27:48.730Z,76177.44
2023-03-27T02:30:31.242Z,76179.47
2023-03-27T02:33:23.355Z,76181.50
2023-03-27T02:36:05.363Z,76191.63
2023-03-27T02:38:45.897Z,76205.78
2023-03-27T02:41:34.714Z,76213.88
2023-03-27T02:44:29.932Z,76215.91
2023-03-27T02:47:24.566Z,76217.94
2023-03-27T02:49:54.423Z,76230.09
2023-03-27T02:52:27.190Z,76228.06
2023-03-27T02:54:56.753Z,76234.13
2023-03-27T02:57:26.585Z,76222.00
2023-03-27T02:59:56.456Z,76222.00
2023-03-27T03:02:30.427Z,76246.28
2023-03-27T03:05:02.249Z,76244.25
2023-03-27T03:07:29.145Z,76242.22
2023-03-27T03:09:55.714Z,76246.28
2023-03-27T03:12:23.084Z,76252.34
2023-03-27T03:14:49.638Z,76258.41
2023-03-27T03:17:17.273Z,76268.53
2023-03-27T03:19:43.798Z,76280.69
2023-03-27T03:22:10.763Z,76290.81
2023-03-27T03:24:37.471Z,76288.78
2023-03-27T03:27:04.533Z,76278.66
2023-03-27T03:29:35.472Z,76286.75
2023-03-27T03:32:02.592Z,76282.72
2023-03-27T03:34:30.380Z,76272.59
2023-03-27T03:36:56.971Z,76286.75
2023-03-27T03:39:23.542Z,76280.69
2023-03-27T03:41:50.063Z,76284.75
2023-03-27T03:44:17.036Z,76290.81
2023-03-27T03:46:43.473Z,76278.66
2023-03-27T03:49:10.060Z,76282.72
2023-03-27T03:51:36.912Z,76278.66
2023-03-27T03:54:09.121Z,76270.56
2023-03-27T03:56:37.143Z,76266.53
2023-03-27T03:59:04.298Z,76264.50
2023-03-27T04:01:30.875Z,76248.31
2023-03-27T04:03:57.528Z,76242.22
2023-03-27T04:06:25.606Z,76242.22
2023-03-27T04:08:53.139Z,76244.25
2023-03-27T04:11:19.949Z,76230.09
2023-03-27T04:13:46.552Z,76238.19
2023-03-27T04:16:13.147Z,76240.22
2023-03-27T04:18:41.345Z,76240.22
2023-03-27T04:21:15.829Z,76219.97
2023-03-27T04:23:42.665Z,76224.00
2023-03-27T04:26:12.183Z,76226.03
2023-03-27T04:28:39.692Z,76224.00
2023-03-27T04:31:07.314Z,76207.81
2023-03-27T04:33:34.706Z,76199.72
2023-03-27T04:36:05.654Z,76205.78
2023-03-27T04:38:39.267Z,76205.78
2023-03-27T04:41:06.099Z,76197.69
2023-03-27T04:43:36.720Z,76197.69
2023-03-27T04:46:06.832Z,76217.94
2023-03-27T04:48:34.525Z,76236.16
2023-03-27T04:51:01.126Z,76228.06
2023-03-27T04:53:30.370Z,76230.09
2023-03-27T04:55:57.337Z,76238.19
2023-03-27T04:58:25.826Z,76230.09
2023-03-27T05:00:56.113Z,76234.13
2023-03-27T05:03:27.904Z,76242.22
2023-03-27T05:05:54.756Z,76234.13
2023-03-27T05:08:21.552Z,76224.00
2023-03-27T05:10:48.172Z,76215.91
2023-03-27T05:13:14.829Z,76205.78
2023-03-27T05:15:41.812Z,76205.78
2023-03-27T05:18:09.115Z,76193.66
2023-03-27T05:20:36.486Z,76187.56
2023-03-27T05:23:04.613Z,76195.66
2023-03-27T05:25:32.720Z,76183.53
2023-03-27T05:28:00.643Z,76191.63
2023-03-27T05:30:28.585Z,76175.44
2023-03-27T05:32:59.377Z,76167.34
2023-03-27T05:35:28.355Z,76132.91
2023-03-27T05:37:56.187Z,76098.50
2023-03-27T05:40:27.426Z,76090.41
2023-03-27T05:42:55.601Z,76076.25
2023-03-27T05:45:23.436Z,76074.22
2023-03-27T05:47:51.944Z,76088.38
2023-03-27T05:50:20.753Z,76092.44
2023-03-27T05:52:47.684Z,76104.56
2023-03-27T05:55:17.876Z,76108.63
2023-03-27T05:57:44.374Z,76104.56
2023-03-27T06:00:16.601Z,76120.78
2023-03-27T06:02:44.946Z,76128.88
2023-03-27T06:05:16.521Z,76145.06
2023-03-27T06:07:43.860Z,76134.94
2023-03-27T06:10:13.646Z,76128.88
2023-03-27T06:12:41.648Z,76124.81
2023-03-27T06:15:09.997Z,76128.88
2023-03-27T06:17:39.575Z,76120.78
2023-03-27T06:20:12.122Z,76100.53
2023-03-27T06:22:46.776Z,76128.88
2023-03-27T06:25:14.270Z,76106.59
2023-03-27T06:27:45.471Z,76100.53
2023-03-27T06:30:13.644Z,76112.69
2023-03-27T06:32:47.460Z,76122.78
2023-03-27T06:35:14.758Z,76120.78
2023-03-27T06:37:42.794Z,76126.84
2023-03-27T06:40:10.586Z,76110.66
2023-03-27T06:42:38.506Z,76104.56
2023-03-27T06:45:05.733Z,76090.41
2023-03-27T06:47:36.394Z,76064.09
2023-03-27T06:50:07.605Z,76051.94
2023-03-27T06:52:34.156Z,76064.09
2023-03-27T06:55:00.687Z,76060.03
2023-03-27T06:57:27.278Z,76043.84
2023-03-27T06:59:53.911Z,76019.56
2023-03-27T07:02:20.629Z,76015.50
2023-03-27T07:04:57.786Z,75995.28
2023-03-27T07:07:31.280Z,75999.31
2023-03-27T07:09:59.069Z,75977.06
2023-03-27T07:12:26.173Z,75932.53
2023-03-27T07:14:52.948Z,75954.78
2023-03-27T07:17:19.738Z,75932.53
2023-03-27T07:19:48.894Z,75879.91
2023-03-27T07:22:16.089Z,75837.38
2023-03-27T07:24:42.742Z,75811.06
2023-03-27T07:27:09.948Z,75802.97
2023-03-27T07:29:37.381Z,75827.28
2023-03-27T07:32:08.047Z,75855.59
2023-03-27T07:34:35.816Z,75902.16
2023-03-27T07:37:02.790Z,75922.41
2023-03-27T07:39:29.538Z,75926.44
2023-03-27T07:41:56.115Z,75952.75
2023-03-27T07:44:22.996Z,75942.66
2023-03-27T07:46:52.191Z,75914.31
2023-03-27T07:49:19.152Z,75885.97
2023-03-27T07:51:46.427Z,75922.41
2023-03-27T07:54:16.998Z,75855.59
2023-03-27T07:56:43.768Z,75847.50
2023-03-27T07:59:11.844Z,75883.94
2023-03-27T08:01:38.471Z,75879.91
2023-03-27T08:04:05.676Z,75928.47
2023-03-27T08:06:32.664Z,75987.19
2023-03-27T08:09:01.583Z,75960.88
2023-03-27T08:11:30.933Z,75908.25
2023-03-27T08:13:58.740Z,75888.00
2023-03-27T08:16:29.126Z,75908.25
2023-03-27T08:18:56.434Z,75904.19
2023-03-27T08:21:23.870Z,75865.72
2023-03-27T08:23:50.690Z,75873.81
2023-03-27T08:26:18.168Z,75902.16
2023-03-27T08:28:44.925Z,75942.66
2023-03-27T08:31:15.305Z,75964.91
2023-03-27T08:33:42.686Z,75981.09
2023-03-27T08:36:11.619Z,75999.31
2023-03-27T08:38:39.533Z,75995.28
2023-03-27T08:41:06.926Z,76019.56
2023-03-27T08:43:42.241Z,76031.72
2023-03-27T08:46:22.528Z,75997.28
2023-03-27T08:49:15.636Z,75993.25
2023-03-27T08:51:49.457Z,75962.88
2023-03-27T08:54:26.509Z,76001.34
2023-03-27T08:56:53.313Z,76023.63
2023-03-27T08:59:22.603Z,76090.41
2023-03-27T09:02:01.406Z,76116.72
2023-03-27T09:04:31.652Z,76116.72
2023-03-27T09:07:05.170Z,76114.69
2023-03-27T09:09:42.383Z,76132.91
2023-03-27T09:12:27.053Z,76157.22
2023-03-27T09:15:01.833Z,76149.13
2023-03-27T09:17:38.273Z,76165.31
2023-03-27T09:20:17.647Z,76161.25
2023-03-27T09:22:48.573Z,76141.00
2023-03-27T09:25:20.263Z,76179.47
2023-03-27T09:27:48.477Z,76193.66
2023-03-27T09:30:19.814Z,76222.00
2023-03-27T09:32:51.714Z,76203.78
2023-03-27T09:35:20.470Z,76213.88
2023-03-27T09:37:49.106Z,76213.88
2023-03-27T09:40:36.457Z,76213.88
2023-03-27T09:43:28.119Z,76250.31
2023-03-27T09:45:55.177Z,76232.09
2023-03-27T09:48:27.471Z,76213.88
2023-03-27T09:50:54.133Z,76209.84
2023-03-27T09:53:23.105Z,76181.50
2023-03-27T09:55:56.389Z,76197.69
2023-03-27T09:58:35.877Z,76201.75
2023-03-27T10:01:36.078Z,76199.72
2023-03-27T10:04:13.108Z,76234.13
2023-03-27T10:06:47.552Z,76213.88
2023-03-27T10:09:26.795Z,76222.00
2023-03-27T10:12:05.468Z,76217.94
2023-03-27T10:14:35.191Z,76230.09
2023-03-27T10:17:03.412Z,76256.41
2023-03-27T10:19:33.874Z,76242.22
2023-03-27T10:22:19.958Z,76213.88
2023-03-27T10:24:47.618Z,76230.09
2023-03-27T10:27:20.943Z,76222.00
2023-03-27T10:29:47.543Z,76228.06
2023-03-27T10:32:14.594Z,76238.19
2023-03-27T10:34:51.900Z,76246.28
2023-03-27T10:37:20.505Z,76250.31
2023-03-27T10:39:47.749Z,76240.22
2023-03-27T10:42:15.577Z,76228.06
2023-03-27T10:44:43.768Z,76215.91
2023-03-27T13:17:42.499Z,76177.44
2023-03-27T13:20:45.313Z,76175.44
2023-03-27T13:23:30.235Z,76165.31
2023-03-27T13:26:18.530Z,76167.34
2023-03-27T13:28:51.085Z,76226.03
2023-03-27T13:31:46.140Z,76246.28
2023-03-27T13:34:27.683Z,76250.31
2023-03-27T13:37:06.442Z,76254.38
2023-03-27T13:40:01.614Z,76270.56
2023-03-27T13:42:34.849Z,76258.41
2023-03-27T13:45:15.077Z,76270.56
2023-03-27T13:48:08.749Z,76282.72
2023-03-27T13:51:02.793Z,76282.72
2023-03-27T13:53:44.307Z,76323.19
2023-03-27T13:56:25.318Z,76351.53
2023-03-27T13:59:28.883Z,76365.72
2023-03-27T14:02:22.801Z,76375.84
2023-03-27T14:04:57.843Z,76359.63
2023-03-27T14:07:42.629Z,76357.63
2023-03-27T14:10:33.805Z,76373.81
2023-03-27T14:13:14.457Z,76396.06
2023-03-27T14:15:46.591Z,76402.16
2023-03-27T14:18:22.418Z,76412.28
2023-03-27T14:20:53.479Z,76438.59
2023-03-27T14:23:23.452Z,76432.53
2023-03-27T14:26:01.946Z,76460.84
2023-03-27T14:28:49.377Z,76470.97
2023-03-27T14:31:19.603Z,76489.19
2023-03-27T14:33:56.186Z,76487.19
2023-03-27T14:36:30.233Z,76531.72
2023-03-27T14:39:27.824Z,76539.81
2023-03-27T14:41:54.552Z,76556.00
2023-03-27T14:44:21.707Z,76558.03
2023-03-27T14:46:48.971Z,76558.03
2023-03-27T14:49:24.767Z,76558.03
2023-03-27T14:51:53.470Z,76576.25
2023-03-27T14:54:27.268Z,76614.72
2023-03-27T14:56:57.083Z,76628.88
2023-03-27T14:59:25.939Z,76636.97
2023-03-27T15:01:56.629Z,76647.09
2023-03-27T15:04:24.708Z,76651.16
2023-03-27T15:06:56.000Z,76651.16
2023-03-27T15:09:24.116Z,76665.31
2023-03-27T15:11:55.656Z,76669.38
2023-03-27T15:14:27.863Z,76689.63
2023-03-27T15:17:00.670Z,76683.56
2023-03-27T15:19:45.742Z,76677.47
2023-03-27T15:22:29.716Z,76691.66
2023-03-27T15:25:25.863Z,76713.91
2023-03-27T15:27:56.111Z,76709.88
2023-03-27T15:30:35.866Z,76709.88
2023-03-27T15:33:04.418Z,76732.13
2023-03-27T15:35:37.780Z,76738.22
2023-03-27T15:38:06.642Z,76736.19
2023-03-27T15:40:40.336Z,76748.34
2023-03-27T15:43:08.745Z,76758.47
2023-03-27T15:45:40.969Z,76748.34
2023-03-27T15:48:21.813Z,76740.22
2023-03-27T15:51:05.590Z,76750.34
2023-03-27T15:53:38.034Z,76750.34
2023-03-27T15:56:19.095Z,76762.50
2023-03-27T15:59:01.553Z,76760.47
2023-03-27T16:01:34.853Z,76796.91
2023-03-27T16:04:07.322Z,76796.91
2023-03-27T16:06:45.944Z,76784.78
2023-03-27T16:09:27.291Z,76792.88
2023-03-27T16:11:55.433Z,76803.00
2023-03-27T16:14:29.411Z,76800.97
2023-03-27T16:17:26.525Z,76780.72
2023-03-27T16:20:02.028Z,76794.91
2023-03-27T16:22:37.276Z,76825.25
2023-03-27T16:25:10.139Z,76811.09
2023-03-27T16:27:51.882Z,76819.19
2023-03-27T16:30:32.403Z,76813.13
2023-03-27T16:33:00.112Z,76825.25
2023-03-27T16:35:28.234Z,76835.38
2023-03-27T16:37:55.070Z,76841.47
2023-03-27T16:40:21.728Z,76857.66
2023-03-27T16:42:48.279Z,76881.97
2023-03-27T16:45:14.943Z,76881.97
2023-03-27T16:47:41.851Z,76888.03
2023-03-27T16:50:24.984Z,76886.00
2023-03-27T16:52:51.578Z,76898.16
2023-03-27T16:55:18.631Z,76904.22
2023-03-27T16:57:46.683Z,76894.09
2023-03-27T17:00:15.712Z,76934.59
2023-03-27T17:02:44.460Z,76950.78
2023-03-27T17:05:11.505Z,76946.75
2023-03-27T17:07:38.469Z,76956.88
2023-03-27T17:10:05.443Z,76979.13
2023-03-27T17:12:32.322Z,76979.13
2023-03-27T17:14:59.036Z,76981.16
2023-03-27T17:17:27.537Z,76983.19
2023-03-27T17:19:54.357Z,76989.25
2023-03-27T17:22:21.815Z,76999.38
2023-03-27T17:24:56.527Z,77001.41
2023-03-27T17:27:25.938Z,76991.28
2023-03-27T17:29:52.551Z,77001.41
2023-03-27T17:32:19.026Z,77013.56
2023-03-27T17:34:45.710Z,77021.66
2023-03-27T17:37:12.710Z,77033.81
2023-03-27T17:39:39.678Z,77021.66
2023-03-27T17:42:06.634Z,77023.69
2023-03-27T17:44:33.213Z,77037.84
2023-03-27T17:47:00.682Z,77033.81
2023-03-27T17:49:29.795Z,77039.88
2023-03-27T17:51:56.550Z,77031.78
2023-03-27T17:54:23.514Z,77019.63
2023-03-27T17:56:50.510Z,77041.91
2023-03-27T17:59:17.123Z,77050.00
2023-03-27T18:01:47.356Z,77041.91
2023-03-27T18:04:14.274Z,77062.16
2023-03-27T18:06:40.949Z,77068.22
2023-03-27T18:09:09.610Z,77080.38
2023-03-27T18:11:36.727Z,77094.53
2023-03-27T18:14:04.237Z,77112.78
2023-03-27T18:16:30.810Z,77141.13
2023-03-27T18:18:57.890Z,77149.22
2023-03-27T18:21:24.966Z,77155.28
2023-03-27T18:23:53.436Z,77151.25
2023-03-27T18:26:21.118Z,77149.22
2023-03-27T18:28:47.716Z,77153.25
2023-03-27T18:31:15.319Z,77149.22
2023-03-27T18:33:42.048Z,77177.56
2023-03-27T18:36:10.814Z,77187.69
2023-03-27T18:38:42.107Z,77207.94
2023-03-27T18:41:09.741Z,77216.03
2023-03-27T18:43:36.636Z,77230.19
2023-03-27T18:46:07.822Z,77226.16
2023-03-27T18:48:35.433Z,77220.06
2023-03-27T18:51:05.047Z,77240.31
2023-03-27T18:53:31.641Z,77226.16
2023-03-27T18:55:58.925Z,77250.44
2023-03-27T18:58:27.695Z,77242.34
2023-03-27T19:00:55.742Z,77252.47
2023-03-27T19:03:24.314Z,77246.41
2023-03-27T19:05:52.042Z,77250.44
2023-03-27T19:08:19.897Z,77264.63
2023-03-27T19:10:46.654Z,77268.69
2023-03-27T19:13:13.243Z,77288.91
2023-03-27T19:15:41.099Z,77303.09
2023-03-27T19:18:08.129Z,77305.13
2023-03-27T19:20:34.792Z,77319.28
2023-03-27T19:23:01.467Z,77327.41
2023-03-27T19:25:28.493Z,77337.53
2023-03-27T19:27:55.137Z,77339.53
2023-03-27T19:30:21.935Z,77351.69
2023-03-27T19:32:50.220Z,77339.53
2023-03-27T19:35:17.110Z,77347.66
2023-03-27T19:37:43.716Z,77355.75
2023-03-27T19:40:10.742Z,77367.91
2023-03-27T19:42:37.319Z,77382.06
2023-03-27T19:45:05.255Z,77380.03
2023-03-27T19:47:32.312Z,77371.94
2023-03-27T19:49:59.170Z,77388.13
2023-03-27T19:52:26.233Z,77400.28
2023-03-27T19:54:53.867Z,77396.25
2023-03-27T19:57:20.964Z,77416.50
2023-03-27T19:59:47.671Z,77408.38
2023-03-27T20:02:14.546Z,77416.50
2023-03-27T20:04:41.312Z,77440.78
2023-03-27T20:07:08.220Z,77444.84
2023-03-27T20:09:35.120Z,77424.59
2023-03-27T20:12:04.287Z,77438.75
2023-03-27T20:14:30.966Z,77428.63
2023-03-27T20:16:57.645Z,77436.75
2023-03-27T20:19:30.409Z,77454.97
2023-03-27T20:21:57.683Z,77461.03
2023-03-27T20:24:24.550Z,77481.28
2023-03-27T20:26:53.845Z,77495.47
2023-03-27T20:29:22.709Z,77501.53
2023-03-27T20:31:49.612Z,77511.66
2023-03-27T20:34:19.277Z,77517.72
2023-03-27T20:36:46.058Z,77509.63
2023-03-27T20:39:14.234Z,77505.59
2023-03-27T20:41:41.099Z,77509.63
2023-03-27T20:44:31.758Z,77505.59
2023-03-27T20:47:06.410Z,77505.59
2023-03-27T20:49:40.630Z,77507.59
2023-03-27T20:52:09.540Z,77503.56
2023-03-27T20:54:36.522Z,77505.59
2023-03-27T20:57:03.988Z,77525.84
2023-03-27T20:59:31.053Z,77525.84
2023-03-27T21:01:58.016Z,77519.75
2023-03-27T21:04:26.158Z,77544.06
2023-03-27T21:06:56.310Z,77529.88
2023-03-27T21:09:24.326Z,77542.03
2023-03-27T21:11:51.573Z,77544.06
2023-03-27T21:14:18.341Z,77535.97
2023-03-27T21:16:44.955Z,77548.09
2023-03-27T21:19:11.950Z,77566.34
2023-03-27T21:21:38.879Z,77562.28
2023-03-27T21:24:06.113Z,77570.38
2023-03-27T21:26:33.450Z,77570.38
2023-03-27T21:28:59.939Z,77570.38
2023-03-27T21:31:26.597Z,77570.38
2023-03-27T21:33:53.184Z,77574.44
2023-03-27T21:36:20.001Z,77570.38
2023-03-27T21:38:46.719Z,77562.28
2023-03-27T21:41:14.547Z,77570.38
2023-03-27T21:43:41.107Z,77580.50
2023-03-27T21:46:07.914Z,77582.53
2023-03-27T21:48:34.455Z,77578.47
2023-03-27T21:51:03.025Z,77578.47
2023-03-27T21:53:29.885Z,77582.53
2023-03-27T21:55:57.467Z,77580.50
2023-03-27T21:58:24.858Z,77584.56
2023-03-27T22:00:51.352Z,77582.53
2023-03-27T22:03:17.898Z,77582.53
2023-03-27T22:05:49.119Z,77610.88
2023-03-27T22:08:21.664Z,77604.81
2023-03-27T22:10:48.374Z,77643.28
2023-03-27T22:13:14.848Z,77647.34
2023-03-27T22:15:41.590Z,77635.19
2023-03-27T22:18:08.327Z,77633.16
2023-03-27T22:20:34.824Z,77655.44
2023-03-27T22:23:01.310Z,77643.28
2023-03-27T22:25:27.975Z,77667.59
2023-03-27T22:27:54.505Z,77667.59
2023-03-27T22:30:21.081Z,77691.88
2023-03-27T22:32:47.613Z,77679.72
2023-03-27T22:35:14.144Z,77695.94
2023-03-27T22:37:40.966Z,77695.94
2023-03-27T22:40:08.060Z,77689.84
2023-03-27T22:42:34.656Z,77695.94
2023-03-27T22:45:01.368Z,77708.09
2023-03-27T22:47:27.964Z,77722.25
2023-03-27T22:49:54.443Z,77720.22
2023-03-27T22:52:21.050Z,77722.25
2023-03-27T22:54:47.568Z,77724.28
2023-03-27T22:57:14.213Z,77744.53
2023-03-27T22:59:41.252Z,77752.63
2023-03-27T23:02:07.846Z,77748.59
2023-03-27T23:04:34.668Z,77760.72
2023-03-27T23:07:01.651Z,77772.88
2023-03-27T23:09:28.156Z,77772.88
2023-03-27T23:11:54.616Z,77780.97
2023-03-27T23:14:21.176Z,77770.84
2023-03-27T23:16:47.741Z,77772.88
2023-03-27T23:19:14.234Z,77780.97
2023-03-27T23:21:40.690Z,77772.88
2023-03-27T23:24:07.426Z,77768.84
2023-03-27T23:26:33.995Z,77785.03
2023-03-27T23:29:00.575Z,77805.28
2023-03-27T23:31:27.179Z,77797.19
2023-03-27T23:33:53.773Z,77801.22
2023-03-27T23:36:22.467Z,77805.28
2023-03-27T23:38:49.694Z,77819.47
2023-03-27T23:41:16.604Z,77809.34
2023-03-27T23:43:43.158Z,77805.28
2023-03-27T23:46:10.737Z,77815.41
2023-03-27T23:48:41.967Z,77817.44
2023-03-27T23:51:09.390Z,77823.50
2023-03-27T23:53:36.373Z,77827.56
2023-03-27T23:56:03.909Z,77833.63
2023-03-27T23:58:32.848Z,77835.66
